sensor_id;sensor_type;location;lat;lon;timestamp;pressure;altitude;pressure_sealevel;temperature;humidity
33155;BME280;19511;42.682;23.332;2023-04-04T00:01:55;93667.44;;;6.67;100.00
33155;BME280;19511;42.682;23.332;2023-04-04T00:04:20;93753.03;;;7.30;100.00
33155;BME280;19511;42.682;23.332;2023-04-04T00:06:48;93759.09;;;7.41;100.00
33155;BME280;19511;42.682;23.332;2023-04-04T00:09:13;93747.75;;;7.39;100.00
33155;BME280;19511;42.682;23.332;2023-04-04T00:11:42;93748.38;;;7.47;100.00
33155;BME280;19511;42.682;23.332;2023-04-04T00:14:11;93759.66;;;7.52;100.00
33155;BME280;19511;42.682;23.332;2023-04-04T00:16:43;93725.19;;;7.28;100.00
33155;BME280;19511;42.682;23.332;2023-04-04T00:19:08;93753.59;;;7.41;100.00
33155;BME280;19511;42.682;23.332;2023-04-04T00:21:41;93637.53;;;6.73;100.00
33155;BME280;19511;42.682;23.332;2023-04-04T00:24:07;93690.50;;;6.94;100.00
33155;BME280;19511;42.682;23.332;2023-04-04T00:26:32;93770.03;;;7.45;100.00
33155;BME280;19511;42.682;23.332;2023-04-04T00:28:58;93760.59;;;7.46;100.00
33155;BME280;19511;42.682;23.332;2023-04-04T00:31:23;93665.50;;;6.68;100.00
33155;BME280;19511;42.682;23.332;2023-04-04T00:33:49;93637.28;;;6.64;100.00
33155;BME280;19511;42.682;23.332;2023-04-04T00:36:14;93654.78;;;6.74;100.00
33155;BME280;19511;42.682;23.332;2023-04-04T00:38:40;93735.34;;;7.31;100.00
33155;BME280;19511;42.682;23.332;2023-04-04T00:41:05;93736.41;;;7.37;100.00
33155;BME280;19511;42.682;23.332;2023-04-04T00:43:40;93717.56;;;7.15;100.00
33155;BME280;19511;42.682;23.332;2023-04-04T00:46:07;93725.97;;;7.28;100.00
33155;BME280;19511;42.682;23.332;2023-04-04T00:48:32;93717.00;;;7.24;100.00
33155;BME280;19511;42.682;23.332;2023-04-04T00:51:03;93711.94;;;7.23;100.00
33155;BME280;19511;42.682;23.332;2023-04-04T00:53:28;93715.88;;;7.22;100.00
33155;BME280;19511;42.682;23.332;2023-04-04T00:55:54;93711.16;;;7.22;100.00
33155;BME280;19511;42.682;23.332;2023-04-04T00:58:28;93715.81;;;7.25;100.00
33155;BME280;19511;42.682;23.332;2023-04-04T01:00:54;93702.63;;;7.16;100.00
33155;BME280;19511;42.682;23.332;2023-04-04T01:03:20;93715.66;;;7.32;100.00
33155;BME280;19511;42.682;23.332;2023-04-04T01:05:46;93674.78;;;6.94;100.00
33155;BME280;19511;42.682;23.332;2023-04-04T01:08:11;93634.91;;;6.66;100.00
33155;BME280;19511;42.682;23.332;2023-04-04T01:10:38;93733.72;;;7.33;100.00
33155;BME280;19511;42.682;23.332;2023-04-04T01:13:04;93729.34;;;7.36;100.00
33155;BME280;19511;42.682;23.332;2023-04-04T01:15:30;93728.34;;;7.46;100.00
33155;BME280;19511;42.682;23.332;2023-04-04T01:17:57;93644.84;;;7.00;100.00
33155;BME280;19511;42.682;23.332;2023-04-04T01:20:25;93731.44;;;7.48;100.00
33155;BME280;19511;42.682;23.332;2023-04-04T01:22:52;93728.84;;;7.41;100.00
33155;BME280;19511;42.682;23.332;2023-04-04T01:25:29;93738.44;;;7.33;100.00
33155;BME280;19511;42.682;23.332;2023-04-04T01:27:57;93739.69;;;7.48;100.00
33155;BME280;19511;42.682;23.332;2023-04-04T01:30:27;93751.47;;;7.49;100.00
33155;BME280;19511;42.682;23.332;2023-04-04T01:33:20;93740.41;;;7.52;100.00
33155;BME280;19511;42.682;23.332;2023-04-04T01:39:39;93734.06;;;7.56;100.00
33155;BME280;19511;42.682;23.332;2023-04-04T01:41:41;93743.66;;;7.47;100.00
33155;BME280;19511;42.682;23.332;2023-04-04T01:44:08;93739.34;;;7.46;100.00
33155;BME280;19511;42.682;23.332;2023-04-04T01:46:35;93727.50;;;7.49;100.00
33155;BME280;19511;42.682;23.332;2023-04-04T01:49:07;93623.84;;;6.90;100.00
33155;BME280;19511;42.682;23.332;2023-04-04T01:51:33;93611.81;;;6.83;100.00
33155;BME280;19511;42.682;23.332;2023-04-04T01:54:04;93697.25;;;7.49;100.00
33155;BME280;19511;42.682;23.332;2023-04-04T01:56:30;93631.69;;;7.28;100.00
33155;BME280;19511;42.682;23.332;2023-04-04T01:58:56;93688.34;;;7.62;100.00
33155;BME280;19511;42.682;23.332;2023-04-04T02:01:22;93681.34;;;7.57;100.00
33155;BME280;19511;42.682;23.332;2023-04-04T02:03:50;93689.09;;;7.62;100.00
33155;BME280;19511;42.682;23.332;2023-04-04T02:06:16;93675.91;;;7.54;100.00
33155;BME280;19511;42.682;23.332;2023-04-04T02:08:42;93689.59;;;7.57;100.00
33155;BME280;19511;42.682;23.332;2023-04-04T02:11:08;93682.53;;;7.56;100.00
33155;BME280;19511;42.682;23.332;2023-04-04T02:13:33;93694.81;;;7.51;100.00
33155;BME280;19511;42.682;23.332;2023-04-04T02:15:58;93689.25;;;7.55;100.00
33155;BME280;19511;42.682;23.332;2023-04-04T02:18:24;93680.03;;;7.45;100.00
33155;BME280;19511;42.682;23.332;2023-04-04T02:20:56;93684.53;;;7.56;100.00
33155;BME280;19511;42.682;23.332;2023-04-04T02:23:22;93675.22;;;7.49;100.00
33155;BME280;19511;42.682;23.332;2023-04-04T02:25:49;93667.63;;;7.37;100.00
33155;BME280;19511;42.682;23.332;2023-04-04T02:28:15;93667.63;;;7.37;100.00
33155;BME280;19511;42.682;23.332;2023-04-04T02:30:40;93681.75;;;7.39;100.00
33155;BME280;19511;42.682;23.332;2023-04-04T02:33:06;93673.81;;;7.41;100.00
33155;BME280;19511;42.682;23.332;2023-04-04T02:35:31;93651.59;;;7.15;100.00
33155;BME280;19511;42.682;23.332;2023-04-04T02:37:59;93675.84;;;7.21;100.00
33155;BME280;19511;42.682;23.332;2023-04-04T02:40:25;93682.97;;;7.18;100.00
33155;BME280;19511;42.682;23.332;2023-04-04T02:42:52;93634.28;;;6.78;100.00
33155;BME280;19511;42.682;23.332;2023-04-04T02:45:21;93685.22;;;7.23;100.00
33155;BME280;19511;42.682;23.332;2023-04-04T02:47:50;93684.09;;;7.21;100.00
33155;BME280;19511;42.682;23.332;2023-04-04T02:50:15;93598.41;;;6.65;100.00
33155;BME280;19511;42.682;23.332;2023-04-04T02:52:41;93691.75;;;7.29;100.00
33155;BME280;19511;42.682;23.332;2023-04-04T02:55:09;93680.97;;;7.18;100.00
33155;BME280;19511;42.682;23.332;2023-04-04T02:57:35;93683.50;;;7.29;100.00
33155;BME280;19511;42.682;23.332;2023-04-04T03:00:01;93678.09;;;7.26;100.00
33155;BME280;19511;42.682;23.332;2023-04-04T03:02:29;93686.88;;;7.37;100.00
33155;BME280;19511;42.682;23.332;2023-04-04T03:04:55;93596.56;;;6.79;100.00
33155;BME280;19511;42.682;23.332;2023-04-04T03:07:23;93594.94;;;6.81;100.00
33155;BME280;19511;42.682;23.332;2023-04-04T03:09:49;93683.13;;;7.47;100.00
33155;BME280;19511;42.682;23.332;2023-04-04T03:12:21;93691.44;;;7.44;100.00
33155;BME280;19511;42.682;23.332;2023-04-04T03:14:46;93685.84;;;7.31;100.00
33155;BME280;19511;42.682;23.332;2023-04-04T03:17:14;93681.34;;;7.21;100.00
33155;BME280;19511;42.682;23.332;2023-04-04T03:19:40;93704.16;;;7.38;100.00
33155;BME280;19511;42.682;23.332;2023-04-04T03:22:08;93700.63;;;7.37;100.00
33155;BME280;19511;42.682;23.332;2023-04-04T03:24:34;93691.25;;;7.34;100.00
33155;BME280;19511;42.682;23.332;2023-04-04T03:27:00;93702.13;;;7.42;100.00
33155;BME280;19511;42.682;23.332;2023-04-04T03:29:27;93690.50;;;7.34;100.00
33155;BME280;19511;42.682;23.332;2023-04-04T03:31:52;93700.75;;;7.50;100.00
33155;BME280;19511;42.682;23.332;2023-04-04T03:34:21;93690.47;;;7.71;100.00
33155;BME280;19511;42.682;23.332;2023-04-04T03:36:49;93697.59;;;7.68;100.00
33155;BME280;19511;42.682;23.332;2023-04-04T03:39:15;93703.44;;;7.54;100.00
33155;BME280;19511;42.682;23.332;2023-04-04T03:41:41;93714.75;;;7.39;100.00
33155;BME280;19511;42.682;23.332;2023-04-04T03:44:06;93623.63;;;6.80;100.00
33155;BME280;19511;42.682;23.332;2023-04-04T03:46:31;93702.69;;;7.33;100.00
33155;BME280;19511;42.682;23.332;2023-04-04T03:48:58;93689.44;;;7.28;100.00
33155;BME280;19511;42.682;23.332;2023-04-04T03:51:24;93685.63;;;7.42;100.00
33155;BME280;19511;42.682;23.332;2023-04-04T03:53:50;93617.56;;;6.89;100.00
33155;BME280;19511;42.682;23.332;2023-04-04T03:56:15;93629.91;;;7.01;100.00
33155;BME280;19511;42.682;23.332;2023-04-04T03:58:41;93706.13;;;7.57;100.00
33155;BME280;19511;42.682;23.332;2023-04-04T04:01:06;93706.38;;;7.63;100.00
33155;BME280;19511;42.682;23.332;2023-04-04T04:03:32;93697.78;;;7.61;100.00
33155;BME280;19511;42.682;23.332;2023-04-04T04:06:00;93689.88;;;7.63;100.00
33155;BME280;19511;42.682;23.332;2023-04-04T04:08:29;93603.78;;;7.09;100.00
33155;BME280;19511;42.682;23.332;2023-04-04T04:11:03;93686.53;;;7.72;100.00
33155;BME280;19511;42.682;23.332;2023-04-04T04:13:33;93594.53;;;7.19;100.00
33155;BME280;19511;42.682;23.332;2023-04-04T04:16:03;93683.34;;;7.73;100.00
33155;BME280;19511;42.682;23.332;2023-04-04T04:18:29;93684.22;;;7.70;100.00
33155;BME280;19511;42.682;23.332;2023-04-04T04:20:58;93700.19;;;7.59;100.00
33155;BME280;19511;42.682;23.332;2023-04-04T04:23:24;93694.81;;;7.51;100.00
33155;BME280;19511;42.682;23.332;2023-04-04T04:25:49;93707.94;;;7.64;100.00
33155;BME280;19511;42.682;23.332;2023-04-04T04:28:18;93706.53;;;7.56;100.00
33155;BME280;19511;42.682;23.332;2023-04-04T04:30:44;93704.13;;;7.58;100.00
33155;BME280;19511;42.682;23.332;2023-04-04T04:33:10;93719.25;;;7.49;100.00
33155;BME280;19511;42.682;23.332;2023-04-04T04:35:36;93724.81;;;7.46;100.00
33155;BME280;19511;42.682;23.332;2023-04-04T04:38:06;93712.75;;;7.40;100.00
33155;BME280;19511;42.682;23.332;2023-04-04T04:40:34;93641.88;;;6.91;100.00
33155;BME280;19511;42.682;23.332;2023-04-04T04:43:01;93741.09;;;7.57;100.00
33155;BME280;19511;42.682;23.332;2023-04-04T04:45:26;93740.81;;;7.51;100.00
33155;BME280;19511;42.682;23.332;2023-04-04T04:47:56;93730.25;;;7.49;100.00
33155;BME280;19511;42.682;23.332;2023-04-04T04:50:22;93750.75;;;7.65;100.00
33155;BME280;19511;42.682;23.332;2023-04-04T04:52:49;93738.06;;;7.71;100.00
33155;BME280;19511;42.682;23.332;2023-04-04T04:55:19;93751.22;;;7.80;100.00
33155;BME280;19511;42.682;23.332;2023-04-04T04:57:47;93743.75;;;7.80;100.00
33155;BME280;19511;42.682;23.332;2023-04-04T05:00:13;93754.41;;;7.78;100.00
33155;BME280;19511;42.682;23.332;2023-04-04T05:02:40;93771.69;;;7.79;100.00
33155;BME280;19511;42.682;23.332;2023-04-04T05:05:06;93762.00;;;7.91;100.00
33155;BME280;19511;42.682;23.332;2023-04-04T05:07:34;93766.91;;;7.99;100.00
33155;BME280;19511;42.682;23.332;2023-04-04T05:10:06;93765.66;;;8.04;100.00
33155;BME280;19511;42.682;23.332;2023-04-04T05:12:34;93692.34;;;7.57;100.00
33155;BME280;19511;42.682;23.332;2023-04-04T05:15:06;93760.81;;;8.08;100.00
33155;BME280;19511;42.682;23.332;2023-04-04T05:17:35;93751.44;;;8.06;100.00
33155;BME280;19511;42.682;23.332;2023-04-04T05:20:01;93758.50;;;8.07;100.00
33155;BME280;19511;42.682;23.332;2023-04-04T05:22:26;93768.72;;;8.06;100.00
33155;BME280;19511;42.682;23.332;2023-04-04T05:24:54;93782.53;;;8.23;100.00
33155;BME280;19511;42.682;23.332;2023-04-04T05:27:21;93771.63;;;8.19;100.00
33155;BME280;19511;42.682;23.332;2023-04-04T05:29:46;93757.91;;;8.15;100.00
33155;BME280;19511;42.682;23.332;2023-04-04T05:32:13;93764.88;;;8.20;100.00
33155;BME280;19511;42.682;23.332;2023-04-04T05:34:41;93725.63;;;7.99;100.00
33155;BME280;19511;42.682;23.332;2023-04-04T05:37:10;93766.63;;;8.30;100.00
33155;BME280;19511;42.682;23.332;2023-04-04T05:39:39;93784.44;;;8.42;100.00
33155;BME280;19511;42.682;23.332;2023-04-04T05:42:05;93778.19;;;8.42;100.00
33155;BME280;19511;42.682;23.332;2023-04-04T05:44:33;93786.09;;;8.40;100.00
33155;BME280;19511;42.682;23.332;2023-04-04T05:46:58;93769.47;;;8.27;100.00
33155;BME280;19511;42.682;23.332;2023-04-04T05:49:24;93772.38;;;8.36;100.00
33155;BME280;19511;42.682;23.332;2023-04-04T05:51:49;93695.94;;;7.91;100.00
33155;BME280;19511;42.682;23.332;2023-04-04T05:54:16;93777.69;;;8.47;100.00
33155;BME280;19511;42.682;23.332;2023-04-04T05:56:42;93785.34;;;8.56;100.00
33155;BME280;19511;42.682;23.332;2023-04-04T05:59:08;93786.38;;;8.62;100.00
33155;BME280;19511;42.682;23.332;2023-04-04T06:01:35;93780.53;;;8.60;100.00
33155;BME280;19511;42.682;23.332;2023-04-04T06:04:01;93734.34;;;8.31;100.00
33155;BME280;19511;42.682;23.332;2023-04-04T06:06:33;93676.13;;;7.96;100.00
33155;BME280;19511;42.682;23.332;2023-04-04T06:09:00;93785.84;;;8.67;100.00
33155;BME280;19511;42.682;23.332;2023-04-04T06:11:26;93794.63;;;8.78;100.00
33155;BME280;19511;42.682;23.332;2023-04-04T06:13:52;93781.56;;;8.82;100.00
33155;BME280;19511;42.682;23.332;2023-04-04T06:16:20;93799.28;;;8.98;100.00
33155;BME280;19511;42.682;23.332;2023-04-04T06:18:46;93804.00;;;8.97;100.00
33155;BME280;19511;42.682;23.332;2023-04-04T06:21:16;93779.78;;;8.89;100.00
33155;BME280;19511;42.682;23.332;2023-04-04T06:23:42;93801.91;;;9.18;100.00
33155;BME280;19511;42.682;23.332;2023-04-04T06:26:09;93789.25;;;9.21;100.00
33155;BME280;19511;42.682;23.332;2023-04-04T06:28:34;93807.81;;;9.33;100.00
33155;BME280;19511;42.682;23.332;2023-04-04T06:31:04;93792.00;;;9.21;100.00
33155;BME280;19511;42.682;23.332;2023-04-04T06:33:31;93807.13;;;9.29;100.00
33155;BME280;19511;42.682;23.332;2023-04-04T06:35:56;93813.44;;;9.29;100.00
33155;BME280;19511;42.682;23.332;2023-04-04T06:38:22;93801.00;;;8.92;100.00
33155;BME280;19511;42.682;23.332;2023-04-04T06:40:51;93834.81;;;8.43;100.00
33155;BME280;19511;42.682;23.332;2023-04-04T06:43:16;93841.00;;;7.74;100.00
33155;BME280;19511;42.682;23.332;2023-04-04T06:45:48;93856.34;;;7.31;100.00
33155;BME280;19511;42.682;23.332;2023-04-04T06:48:13;93866.41;;;6.94;100.00
33155;BME280;19511;42.682;23.332;2023-04-04T06:50:39;93870.25;;;7.00;100.00
33155;BME280;19511;42.682;23.332;2023-04-04T06:53:05;93854.19;;;6.47;100.00
33155;BME280;19511;42.682;23.332;2023-04-04T06:55:32;93873.38;;;6.24;100.00
33155;BME280;19511;42.682;23.332;2023-04-04T06:57:58;93756.88;;;5.35;100.00
33155;BME280;19511;42.682;23.332;2023-04-04T07:00:23;93873.53;;;5.78;100.00
33155;BME280;19511;42.682;23.332;2023-04-04T07:02:56;93888.44;;;6.08;100.00
33155;BME280;19511;42.682;23.332;2023-04-04T07:05:22;93904.16;;;6.08;100.00
33155;BME280;19511;42.682;23.332;2023-04-04T07:07:50;93906.22;;;5.96;100.00
33155;BME280;19511;42.682;23.332;2023-04-04T07:10:18;93916.72;;;5.70;100.00
33155;BME280;19511;42.682;23.332;2023-04-04T07:12:44;93933.75;;;5.51;100.00
33155;BME280;19511;42.682;23.332;2023-04-04T07:15:10;93910.44;;;5.32;100.00
33155;BME280;19511;42.682;23.332;2023-04-04T07:17:37;93870.53;;;4.89;100.00
33155;BME280;19511;42.682;23.332;2023-04-04T07:20:04;93921.94;;;5.19;100.00
33155;BME280;19511;42.682;23.332;2023-04-04T07:22:30;93942.97;;;5.33;100.00
33155;BME280;19511;42.682;23.332;2023-04-04T07:24:55;93957.25;;;5.10;100.00
33155;BME280;19511;42.682;23.332;2023-04-04T07:27:28;93964.25;;;5.15;100.00
33155;BME280;19511;42.682;23.332;2023-04-04T07:29:54;93960.41;;;5.05;100.00
33155;BME280;19511;42.682;23.332;2023-04-04T07:32:20;93949.53;;;4.98;100.00
33155;BME280;19511;42.682;23.332;2023-04-04T07:34:49;93975.56;;;5.20;100.00
33155;BME280;19511;42.682;23.332;2023-04-04T07:37:14;93969.03;;;5.07;100.00
33155;BME280;19511;42.682;23.332;2023-04-04T07:39:40;93967.47;;;5.06;100.00
33155;BME280;19511;42.682;23.332;2023-04-04T07:42:06;93904.78;;;4.63;100.00
33155;BME280;19511;42.682;23.332;2023-04-04T07:44:32;93995.63;;;5.06;100.00
33155;BME280;19511;42.682;23.332;2023-04-04T07:46:57;93992.13;;;5.06;100.00
33155;BME280;19511;42.682;23.332;2023-04-04T07:49:23;93990.22;;;4.99;100.00
33155;BME280;19511;42.682;23.332;2023-04-04T07:51:48;93961.00;;;4.82;100.00
33155;BME280;19511;42.682;23.332;2023-04-04T07:54:18;93984.03;;;4.92;100.00
33155;BME280;19511;42.682;23.332;2023-04-04T07:56:44;93987.94;;;4.90;100.00
33155;BME280;19511;42.682;23.332;2023-04-04T07:59:10;93985.22;;;4.87;100.00
33155;BME280;19511;42.682;23.332;2023-04-04T08:01:36;93966.16;;;4.69;100.00
33155;BME280;19511;42.682;23.332;2023-04-04T08:04:01;93993.13;;;4.78;100.00
33155;BME280;19511;42.682;23.332;2023-04-04T08:06:28;94012.28;;;4.78;100.00
33155;BME280;19511;42.682;23.332;2023-04-04T08:08:53;94022.94;;;4.65;100.00
33155;BME280;19511;42.682;23.332;2023-04-04T08:11:19;93993.69;;;4.44;100.00
33155;BME280;19511;42.682;23.332;2023-04-04T08:13:48;94009.59;;;4.67;100.00
33155;BME280;19511;42.682;23.332;2023-04-04T08:16:14;94017.78;;;4.74;100.00
33155;BME280;19511;42.682;23.332;2023-04-04T08:18:43;93984.22;;;4.55;100.00
33155;BME280;19511;42.682;23.332;2023-04-04T08:21:15;94033.03;;;4.75;100.00
33155;BME280;19511;42.682;23.332;2023-04-04T08:23:43;94039.69;;;4.74;100.00
33155;BME280;19511;42.682;23.332;2023-04-04T08:26:10;94021.78;;;4.62;100.00
33155;BME280;19511;42.682;23.332;2023-04-04T08:28:39;94031.94;;;4.54;100.00
33155;BME280;19511;42.682;23.332;2023-04-04T08:31:07;94042.84;;;4.69;100.00
33155;BME280;19511;42.682;23.332;2023-04-04T08:33:34;94039.72;;;4.67;100.00
33155;BME280;19511;42.682;23.332;2023-04-04T08:35:59;94054.16;;;4.71;100.00
33155;BME280;19511;42.682;23.332;2023-04-04T08:38:25;94045.94;;;4.74;100.00
33155;BME280;19511;42.682;23.332;2023-04-04T08:40:51;94055.31;;;4.81;100.00
33155;BME280;19511;42.682;23.332;2023-04-04T08:43:19;94061.59;;;4.81;100.00
33155;BME280;19511;42.682;23.332;2023-04-04T08:45:49;94038.53;;;4.75;100.00
33155;BME280;19511;42.682;23.332;2023-04-04T08:48:19;94053.72;;;4.83;100.00
33155;BME280;19511;42.682;23.332;2023-04-04T08:50:47;93973.50;;;4.12;100.00
33155;BME280;19511;42.682;23.332;2023-04-04T08:53:14;94053.06;;;4.65;100.00
33155;BME280;19511;42.682;23.332;2023-04-04T08:55:41;94078.13;;;4.52;100.00
33155;BME280;19511;42.682;23.332;2023-04-04T08:58:19;94062.13;;;4.47;100.00
33155;BME280;19511;42.682;23.332;2023-04-04T09:00:45;94071.13;;;4.44;100.00
33155;BME280;19511;42.682;23.332;2023-04-04T09:03:19;94092.25;;;4.36;100.00
33155;BME280;19511;42.682;23.332;2023-04-04T09:05:46;94082.88;;;4.41;100.00
33155;BME280;19511;42.682;23.332;2023-04-04T09:08:17;94072.78;;;4.16;100.00
33155;BME280;19511;42.682;23.332;2023-04-04T09:10:43;94095.06;;;4.25;100.00
33155;BME280;19511;42.682;23.332;2023-04-04T09:13:09;94086.47;;;4.13;100.00
33155;BME280;19511;42.682;23.332;2023-04-04T09:15:37;94098.97;;;4.24;100.00
33155;BME280;19511;42.682;23.332;2023-04-04T09:18:06;94101.69;;;4.21;100.00
33155;BME280;19511;42.682;23.332;2023-04-04T09:20:38;94107.94;;;4.29;100.00
33155;BME280;19511;42.682;23.332;2023-04-04T09:25:35;94108.69;;;4.33;100.00
33155;BME280;19511;42.682;23.332;2023-04-04T09:28:06;94097.75;;;4.36;100.00
33155;BME280;19511;42.682;23.332;2023-04-04T09:30:36;94090.00;;;4.13;100.00
33155;BME280;19511;42.682;23.332;2023-04-04T09:33:03;94103.25;;;4.25;100.00
33155;BME280;19511;42.682;23.332;2023-04-04T09:35:33;94104.03;;;4.30;100.00
33155;BME280;19511;42.682;23.332;2023-04-04T09:38:07;94091.53;;;4.21;100.00
33155;BME280;19511;42.682;23.332;2023-04-04T09:40:36;94090.75;;;4.17;100.00
33155;BME280;19511;42.682;23.332;2023-04-04T09:43:03;94080.56;;;4.21;100.00
33155;BME280;19511;42.682;23.332;2023-04-04T09:45:32;94100.06;;;4.45;100.00
33155;BME280;19511;42.682;23.332;2023-04-04T09:48:02;94111.00;;;4.49;100.00
33155;BME280;19511;42.682;23.332;2023-04-04T09:50:32;94092.66;;;4.35;100.00
33155;BME280;19511;42.682;23.332;2023-04-04T09:53:01;94105.56;;;4.38;100.00
33155;BME280;19511;42.682;23.332;2023-04-04T09:55:32;94025.59;;;3.76;100.00
33155;BME280;19511;42.682;23.332;2023-04-04T09:57:59;94103.22;;;4.33;100.00
33155;BME280;19511;42.682;23.332;2023-04-04T10:00:29;94112.63;;;4.32;100.00
33155;BME280;19511;42.682;23.332;2023-04-04T10:02:56;94092.31;;;4.18;100.00
33155;BME280;19511;42.682;23.332;2023-04-04T10:05:27;94108.75;;;4.25;100.00
33155;BME280;19511;42.682;23.332;2023-04-04T10:07:56;94103.66;;;4.13;100.00
33155;BME280;19511;42.682;23.332;2023-04-04T10:10:21;94114.97;;;4.30;100.00
33155;BME280;19511;42.682;23.332;2023-04-04T10:12:47;94118.06;;;4.39;100.00
33155;BME280;19511;42.682;23.332;2023-04-04T10:15:14;94029.44;;;3.89;100.00
33155;BME280;19511;42.682;23.332;2023-04-04T10:17:40;94119.22;;;4.41;100.00
33155;BME280;19511;42.682;23.332;2023-04-04T10:20:08;94127.84;;;4.47;100.00
33155;BME280;19511;42.682;23.332;2023-04-04T10:22:35;94128.53;;;4.66;100.00
33155;BME280;19511;42.682;23.332;2023-04-04T10:25:05;94134.47;;;4.50;100.00
33155;BME280;19511;42.682;23.332;2023-04-04T10:27:32;94134.13;;;4.37;100.00
33155;BME280;19511;42.682;23.332;2023-04-04T10:30:01;94041.97;;;3.87;100.00
33155;BME280;19511;42.682;23.332;2023-04-04T10:32:35;94147.78;;;4.44;100.00
33155;BME280;19511;42.682;23.332;2023-04-04T10:35:04;94113.03;;;4.19;100.00
33155;BME280;19511;42.682;23.332;2023-04-04T10:37:38;94124.34;;;4.29;100.00
33155;BME280;19511;42.682;23.332;2023-04-04T10:40:12;94150.94;;;4.39;100.00
33155;BME280;19511;42.682;23.332;2023-04-04T10:42:42;94158.78;;;4.37;100.00
33155;BME280;19511;42.682;23.332;2023-04-04T10:45:08;94149.78;;;4.29;100.00
33155;BME280;19511;42.682;23.332;2023-04-04T10:47:35;94141.97;;;4.20;100.00
33155;BME280;19511;42.682;23.332;2023-04-04T10:50:03;94145.84;;;4.27;100.00
33155;BME280;19511;42.682;23.332;2023-04-04T10:52:35;94158.78;;;4.37;100.00
33155;BME280;19511;42.682;23.332;2023-04-04T10:55:07;94168.50;;;4.45;100.00
33155;BME280;19511;42.682;23.332;2023-04-04T10:57:40;94164.66;;;4.32;100.00
33155;BME280;19511;42.682;23.332;2023-04-04T11:00:07;94172.84;;;4.21;100.00
33155;BME280;19511;42.682;23.332;2023-04-04T11:02:48;94165.03;;;4.08;100.00
33155;BME280;19511;42.682;23.332;2023-04-04T11:08:00;94174.81;;;4.24;100.00
33155;BME280;19511;42.682;23.332;2023-04-04T11:10:30;94075.22;;;3.49;100.00
33155;BME280;19511;42.682;23.332;2023-04-04T11:12:57;94190.06;;;4.21;100.00
33155;BME280;19511;42.682;23.332;2023-04-04T11:15:59;94186.53;;;4.10;100.00
33155;BME280;19511;42.682;23.332;2023-04-04T11:21:20;94093.19;;;3.57;100.00
33155;BME280;19511;42.682;23.332;2023-04-04T11:26:36;94202.56;;;4.33;100.00
33155;BME280;19511;42.682;23.332;2023-04-04T11:29:09;94112.31;;;3.86;100.00
33155;BME280;19511;42.682;23.332;2023-04-04T11:31:43;94190.06;;;4.32;100.00
33155;BME280;19511;42.682;23.332;2023-04-04T11:34:29;94205.31;;;4.37;100.00
33155;BME280;19511;42.682;23.332;2023-04-04T11:36:54;94202.97;;;4.24;100.00
33155;BME280;19511;42.682;23.332;2023-04-04T11:44:27;94188.50;;;4.20;100.00
33155;BME280;19511;42.682;23.332;2023-04-04T11:46:59;94189.28;;;4.17;100.00
33155;BME280;19511;42.682;23.332;2023-04-04T11:49:27;94201.78;;;4.18;100.00
33155;BME280;19511;42.682;23.332;2023-04-04T11:51:56;94095.91;;;3.29;100.00
33155;BME280;19511;42.682;23.332;2023-04-04T11:54:31;94211.97;;;4.14;100.00
33155;BME280;19511;42.682;23.332;2023-04-04T11:56:57;94195.94;;;4.05;100.00
33155;BME280;19511;42.682;23.332;2023-04-04T11:59:23;94203.75;;;4.14;100.00
33155;BME280;19511;42.682;23.332;2023-04-04T12:01:49;94136.56;;;3.73;100.00
33155;BME280;19511;42.682;23.332;2023-04-04T12:04:21;94201.81;;;3.97;100.00
33155;BME280;19511;42.682;23.332;2023-04-04T12:07:00;94207.25;;;4.07;100.00
33155;BME280;19511;42.682;23.332;2023-04-04T12:09:29;94206.13;;;4.01;100.00
33155;BME280;19511;42.682;23.332;2023-04-04T12:11:56;94193.59;;;3.89;100.00
33155;BME280;19511;42.682;23.332;2023-04-04T12:16:58;94208.84;;;4.12;100.00
33155;BME280;19511;42.682;23.332;2023-04-04T12:19:24;94201.03;;;3.89;100.00
33155;BME280;19511;42.682;23.332;2023-04-04T12:29:12;94219.75;;;3.83;100.00
33155;BME280;19511;42.682;23.332;2023-04-04T12:31:48;94210.00;;;3.75;100.00
33155;BME280;19511;42.682;23.332;2023-04-04T12:34:23;94213.16;;;3.95;100.00
33155;BME280;19511;42.682;23.332;2023-04-04T12:37:07;94211.94;;;3.78;100.00
33155;BME280;19511;42.682;23.332;2023-04-04T12:39:39;94203.75;;;3.71;100.00
33155;BME280;19511;42.682;23.332;2023-04-04T12:42:11;94111.09;;;3.08;100.00
33155;BME280;19511;42.682;23.332;2023-04-04T12:44:38;94223.63;;;3.60;100.00
33155;BME280;19511;42.682;23.332;2023-04-04T12:47:05;94212.69;;;3.46;100.00
33155;BME280;19511;42.682;23.332;2023-04-04T12:49:39;94235.75;;;3.52;100.00
33155;BME280;19511;42.682;23.332;2023-04-04T12:52:06;94232.22;;;3.45;100.00
33155;BME280;19511;42.682;23.332;2023-04-04T12:54:40;94229.88;;;3.43;100.00
33155;BME280;19511;42.682;23.332;2023-04-04T12:57:06;94229.06;;;3.35;100.00
33155;BME280;19511;42.682;23.332;2023-04-04T12:59:33;94225.16;;;3.33;100.00
33155;BME280;19511;42.682;23.332;2023-04-04T13:02:00;94245.47;;;3.35;100.00
33155;BME280;19511;42.682;23.332;2023-04-04T13:04:30;94178.16;;;2.94;100.00
33155;BME280;19511;42.682;23.332;2023-04-04T13:06:56;94224.34;;;3.21;100.00
33155;BME280;19511;42.682;23.332;2023-04-04T13:09:23;94232.59;;;3.39;100.00
33155;BME280;19511;42.682;23.332;2023-04-04T13:12:05;94250.16;;;3.42;100.00
33155;BME280;19511;42.682;23.332;2023-04-04T13:15:04;94262.66;;;3.39;100.00
33155;BME280;19511;42.682;23.332;2023-04-04T13:20:26;94262.59;;;3.29;100.00
33155;BME280;19511;42.682;23.332;2023-04-04T13:22:57;94250.44;;;3.08;100.00
33155;BME280;19511;42.682;23.332;2023-04-04T13:25:24;94259.41;;;3.12;100.00
33155;BME280;19511;42.682;23.332;2023-04-04T13:27:54;94251.56;;;3.03;100.00